^^
Grace C. Lehan Memorial Weather Station Historical Data
Daily Summary for May 28, 2021 Units:  Metric    English   Both
Daily Weekly Monthly Yearly
  High: Low: Average:
Temperature: 0.8 °C -8.4 °C -2.8 °C
Dew Point: -3.4 °C -14.8 °C -7.6 °C
Humidity: 85% 56% 70%
Wind Speed: 22.5km/h 0km/h 7.9km/h
Wind Gust: 41.8km/h - -
Wind- - NW
Pressure: 1018.8 hPa 1014.4 hPa -
Precipitation: 0 mm    
 
 
Tabular Data for May 28, 2021
Time Temperature Dew Point Pressure Wind Wind Speed Wind Gust Humidity Rainfall Rate (Hourly) solar
00:04 -0.7 °C -3.4 °C 1017.5 hPa NNW 1.1 km/h 16.1 km/h 82% 0 mm 0 W/m2
00:09 -0.7 °C -3.4 °C 1017.5 hPa NNW 3.2 km/h 11.3 km/h 82% 0 mm 0 W/m2
00:14 -0.7 °C -3.4 °C 1017.5 hPa NW 1.8 km/h 11.3 km/h 82% 0 mm 0 W/m2
00:19 -0.7 °C -3.4 °C 1017.5 hPa NW 3.5 km/h 12.9 km/h 82% 0 mm 0 W/m2
00:24 -0.7 °C -3.4 °C 1017.5 hPa NNW 3.4 km/h 12.9 km/h 81.7% 0 mm 0 W/m2
00:29 -0.7 °C -3.4 °C 1017.5 hPa NW 2.9 km/h 12.9 km/h 81.9% 0 mm 0 W/m2
00:34 -0.7 °C -3.5 °C 1017.2 hPa NW 4.3 km/h 14.5 km/h 81.4% 0 mm 0 W/m2
00:39 -0.7 °C -3.6 °C 1017.2 hPa NW 2.9 km/h 14.5 km/h 81.3% 0 mm 0 W/m2
00:44 -0.8 °C -3.4 °C 1017.2 hPa NW 2.1 km/h 14.5 km/h 82% 0 mm 0 W/m2
00:49 -0.8 °C -3.5 °C 1017.2 hPa NNW 2.9 km/h 14.5 km/h 81.7% 0 mm 0 W/m2
00:54 -0.8 °C -3.6 °C 1017.2 hPa NNW 0.6 km/h 14.5 km/h 81% 0 mm 0 W/m2
00:59 -0.8 °C -3.6 °C 1017.2 hPa Calm   14.5 km/h 81.2% 0 mm 0 W/m2
01:04 -0.8 °C -3.4 °C 1017.2 hPa NNW 2.4 km/h 14.5 km/h 82% 0 mm 0 W/m2
01:09 -0.8 °C -3.4 °C 1017.2 hPa NNW 0.6 km/h 8 km/h 82% 0 mm 0 W/m2
01:14 -0.8 °C -3.5 °C 1017.2 hPa North 3.1 km/h 8 km/h 81.8% 0 mm 0 W/m2
01:19 -0.8 °C -3.7 °C 1016.8 hPa North 0.2 km/h 8 km/h 81% 0 mm 0 W/m2
01:24 -0.8 °C -3.7 °C 1017.2 hPa North 0.6 km/h 8 km/h 81% 0 mm 0 W/m2
01:29 -0.8 °C -3.7 °C 1016.8 hPa Calm   8 km/h 81% 0 mm 0 W/m2
01:34 -0.8 °C -3.6 °C 1016.8 hPa North 0.8 km/h 8 km/h 81.5% 0 mm 0 W/m2
01:39 -0.8 °C -3.5 °C 1016.8 hPa Calm   4.8 km/h 82% 0 mm 0 W/m2
01:44 -0.9 °C -3.6 °C 1016.8 hPa North 0.5 km/h 4.8 km/h 82% 0 mm 0 W/m2
01:49 -0.9 °C -3.6 °C 1017.2 hPa Calm   4.8 km/h 82% 0 mm 0 W/m2
01:54 -0.9 °C -3.6 °C 1016.8 hPa Calm   4.8 km/h 82% 0 mm 0 W/m2
01:59 -0.9 °C -3.6 °C 1016.8 hPa Calm   4.8 km/h 82% 0 mm 0 W/m2
02:04 -0.9 °C -3.6 °C 1016.8 hPa Calm   4.8 km/h 82% 0 mm 0 W/m2
02:09 -0.9 °C -3.6 °C 1016.8 hPa Calm     82% 0 mm 0 W/m2
02:14 -0.9 °C -3.6 °C 1016.8 hPa Calm     82% 0 mm 0 W/m2
02:19 -0.9 °C -3.6 °C 1016.8 hPa North 0.2 km/h 3.2 km/h 82% 0 mm 0 W/m2
02:24 -0.9 °C -3.6 °C 1016.5 hPa North 0.5 km/h 4.8 km/h 82% 0 mm 0 W/m2
02:29 -1 °C -3.7 °C 1016.8 hPa North 0.3 km/h 4.8 km/h 82% 0 mm 0 W/m2
02:34 -1 °C -3.7 °C 1016.8 hPa Calm   4.8 km/h 82% 0 mm 0 W/m2
02:39 -1.1 °C -3.7 °C 1016.5 hPa North 0.2 km/h 3.2 km/h 82% 0 mm 0 W/m2
02:44 -1.1 °C -3.8 °C 1016.5 hPa North 0.2 km/h 3.2 km/h 82% 0 mm 0 W/m2
02:49 -1.2 °C -3.8 °C 1016.5 hPa North 0.6 km/h 3.2 km/h 82% 0 mm 0 W/m2
02:54 -1.2 °C -3.9 °C 1016.5 hPa Calm   3.2 km/h 82% 0 mm 0 W/m2
02:59 -1.3 °C -3.9 °C 1016.1 hPa Calm   3.2 km/h 82% 0 mm 0 W/m2
03:04 -1.3 °C -4.1 °C 1016.1 hPa Calm   3.2 km/h 82% 0 mm 0 W/m2
03:09 -1.4 °C -4.1 °C 1016.1 hPa Calm     82% 0 mm 0 W/m2
03:14 -1.6 °C -4.2 °C 1015.8 hPa North 0.2 km/h 3.2 km/h 82% 0 mm 0 W/m2
03:19 -1.7 °C -4.2 °C 1016.1 hPa Calm   3.2 km/h 82.5% 0 mm 0 W/m2
03:24 -1.7 °C -4.2 °C 1016.1 hPa North 0.2 km/h 3.2 km/h 83% 0 mm 0 W/m2
03:29 -1.8 °C -4.3 °C 1016.1 hPa Calm   3.2 km/h 83% 0 mm 0 W/m2
03:34 -1.9 °C -4.4 °C 1016.1 hPa Calm   3.2 km/h 83% 0 mm 0 W/m2
03:39 -2 °C -4.5 °C 1016.1 hPa Calm     83% 0 mm 0 W/m2
03:44 -2.1 °C -4.6 °C 1016.5 hPa Calm     83% 0 mm 0 W/m2
03:49 -2.2 °C -4.5 °C 1016.5 hPa Calm     84% 0 mm 0 W/m2
03:54 -2.3 °C -4.6 °C 1016.1 hPa North 0.3 km/h 3.2 km/h 84% 0 mm 0 W/m2
03:59 -2.3 °C -4.7 °C 1016.1 hPa Calm   3.2 km/h 84% 0 mm 0 W/m2
04:04 -2.4 °C -4.6 °C 1016.1 hPa Calm   3.2 km/h 84.7% 0 mm 0 W/m2
04:09 -2.4 °C -4.6 °C 1016.1 hPa North 0.2 km/h 4.8 km/h 85% 0 mm 0 W/m2
04:14 -2.5 °C -4.7 °C 1016.1 hPa North 1.4 km/h 6.4 km/h 85% 0 mm 0 W/m2
04:19 -2.5 °C -4.7 °C 1015.8 hPa North 1.6 km/h 6.4 km/h 85% 0 mm 0 W/m2
04:24 -2.5 °C -4.7 °C 1015.8 hPa NNW 1.8 km/h 9.7 km/h 85% 0 mm 0 W/m2
04:29 -2.5 °C -4.7 °C 1015.8 hPa NNW 1.1 km/h 9.7 km/h 85% 0 mm 0 W/m2
04:34 -2.5 °C -4.7 °C 1015.8 hPa NNW 1.9 km/h 14.5 km/h 85% 0 mm 0 W/m2
04:39 -2.5 °C -4.7 °C 1015.5 hPa NW 3.2 km/h 14.5 km/h 85% 0 mm 0 W/m2
04:44 -2.4 °C -4.6 °C 1015.5 hPa NNW 4.3 km/h 17.7 km/h 85% 0 mm 0 W/m2
04:49 -2.4 °C -4.6 °C 1015.5 hPa NNW 3.7 km/h 17.7 km/h 84.5% 0 mm 0 W/m2
04:54 -2.3 °C -4.7 °C 1015.5 hPa NNW 1.9 km/h 17.7 km/h 84% 0 mm 0 W/m2
04:59 -2.3 °C -4.6 °C 1015.5 hPa NNW 5.5 km/h 17.7 km/h 84% 0 mm 0 W/m2
05:04 -2.3 °C -4.6 °C 1015.1 hPa North 2.4 km/h 17.7 km/h 84% 0 mm 0 W/m2
05:09 -2.3 °C -4.6 °C 1015.5 hPa NNW 2.4 km/h 11.3 km/h 84% 0 mm 0 W/m2
05:14 -2.3 °C -4.6 °C 1015.5 hPa NNW 2.9 km/h 11.3 km/h 84% 0 mm 0 W/m2
05:19 -2.3 °C -4.6 °C 1015.5 hPa North 2.1 km/h 11.3 km/h 84% 0 mm 0 W/m2
05:24 -2.3 °C -4.6 °C 1015.5 hPa NNW 2.7 km/h 11.3 km/h 84% 0 mm 0 W/m2
05:29 -2.3 °C -4.7 °C 1015.8 hPa NNW 3.1 km/h 11.3 km/h 83.3% 0 mm 0 W/m2
05:34 -2.3 °C -4.8 °C 1016.1 hPa NW 2.1 km/h 11.3 km/h 83% 0 mm 0 W/m2
05:39 -2.3 °C -4.8 °C 1016.1 hPa NW 2.3 km/h 9.7 km/h 83% 0 mm 0 W/m2
05:44 -2.2 °C -4.7 °C 1016.1 hPa NW 2.6 km/h 9.7 km/h 83% 0 mm 0 W/m2
05:49 -2.2 °C -4.7 °C 1016.1 hPa NNW 1.3 km/h 9.7 km/h 83% 0 mm 0 W/m2
05:54 -2.2 °C -4.7 °C 1016.1 hPa NNW 1.8 km/h 9.7 km/h 83% 0 mm 0 W/m2
05:59 -2.2 °C -4.7 °C 1016.1 hPa NW 2.4 km/h 11.3 km/h 83.3% 0 mm 0 W/m2
06:04 -2.2 °C -4.7 °C 1016.1 hPa NNW 2.9 km/h 11.3 km/h 83% 0 mm 0 W/m2
06:09 -2.2 °C -4.7 °C 1016.5 hPa NNW 3.1 km/h 14.5 km/h 83% 0 mm 0 W/m2
06:14 -2.2 °C -4.7 °C 1016.1 hPa NW 2.3 km/h 14.5 km/h 83% 0 mm 0 W/m2
06:19 -2.1 °C -4.6 °C 1016.1 hPa NNW 2.9 km/h 14.5 km/h 83% 0 mm 0 W/m2
06:24 -2.1 °C -4.6 °C 1016.1 hPa NNW 2.3 km/h 14.5 km/h 83% 0 mm 0 W/m2
06:29 -2.1 °C -4.6 °C 1016.1 hPa NNW 1 km/h 14.5 km/h 83% 0 mm 0 W/m2
06:34 -2.1 °C -4.6 °C 1016.1 hPa NNW 2.3 km/h 14.5 km/h 83% 0 mm 0 W/m2
06:39 -2.1 °C -4.7 °C 1016.1 hPa NW 5.5 km/h 16.1 km/h 82% 0 mm 0 W/m2
06:44 -2 °C -4.7 °C 1016.1 hPa NW 4.5 km/h 16.1 km/h 82% 0 mm 0 W/m2
06:49 -2 °C -4.6 °C 1016.1 hPa NW 5.6 km/h 16.1 km/h 82% 0 mm 0 W/m2
06:54 -1.9 °C -4.7 °C 1016.1 hPa NW 5.1 km/h 16.1 km/h 81.7% 0 mm 0 W/m2
06:59 -1.9 °C -4.8 °C 1016.1 hPa NNW 4.7 km/h 16.1 km/h 81% 0 mm 0 W/m2
07:04 -1.9 °C -4.7 °C 1015.8 hPa NNW 2.7 km/h 16.1 km/h 81% 0 mm 0 W/m2
07:09 -1.9 °C -4.7 °C 1015.8 hPa NW 1.9 km/h 16.1 km/h 81% 0 mm 0 W/m2
07:14 -1.9 °C -4.7 °C 1016.1 hPa NNW 2.3 km/h 16.1 km/h 81% 0 mm 0 W/m2
07:19 -1.9 °C -4.7 °C 1016.1 hPa North 1.6 km/h 16.1 km/h 81% 0 mm 5 W/m2
07:24 -1.9 °C -4.7 °C 1015.8 hPa NW 3.1 km/h 16.1 km/h 81% 0 mm 5 W/m2
07:29 -1.8 °C -4.7 °C 1016.1 hPa NNW 1 km/h 16.1 km/h 81% 0 mm 7 W/m2
07:34 -1.8 °C -4.7 °C 1016.1 hPa NW 2.4 km/h 16.1 km/h 81% 0 mm 9 W/m2
07:39 -1.8 °C -4.7 °C 1016.1 hPa NW 1.3 km/h 14.5 km/h 81% 0 mm 9 W/m2
07:44 -1.8 °C -4.7 °C 1016.1 hPa NW 2.7 km/h 14.5 km/h 81% 0 mm 11 W/m2
07:49 -1.8 °C -4.8 °C 1016.5 hPa NW 1.6 km/h 14.5 km/h 80.4% 0 mm 12 W/m2
07:54 -1.8 °C -4.8 °C 1016.5 hPa NNW 2.9 km/h 14.5 km/h 80% 0 mm 18 W/m2
07:59 -1.8 °C -4.8 °C 1016.5 hPa NW 2.4 km/h 14.5 km/h 80% 0 mm 19 W/m2
08:00 -1.8 °C -4.8 °C 1016.1 hPa Calm   14.5 km/h 80% 0 mm 19 W/m2
08:09 -1.8 °C -4.8 °C 1016.5 hPa NW 7.7 km/h 19.3 km/h 79.9% 0 mm 26 W/m2
08:14 -1.7 °C -4.8 °C 1016.1 hPa NNW 5.1 km/h 19.3 km/h 79.8% 0 mm 28 W/m2
08:19 -1.7 °C -4.8 °C 1016.1 hPa NNW 4.8 km/h 19.3 km/h 79.5% 0 mm 35 W/m2
08:24 -1.7 °C -4.8 °C 1016.1 hPa NW 5 km/h 19.3 km/h 79.4% 0 mm 40 W/m2
08:29 -1.7 °C -4.8 °C 1016.5 hPa NW 6 km/h 19.3 km/h 79% 0 mm 40 W/m2
08:34 -1.7 °C -4.8 °C 1016.5 hPa NNW 4.2 km/h 19.3 km/h 79% 0 mm 42 W/m2
08:39 -1.6 °C -4.8 °C 1016.5 hPa NW 8.7 km/h 17.7 km/h 79% 0 mm 47 W/m2
08:44 -1.6 °C -4.9 °C 1016.1 hPa NW 7.2 km/h 19.3 km/h 78.4% 0 mm 51 W/m2
08:49 -1.6 °C -4.9 °C 1016.5 hPa NW 6.8 km/h 19.3 km/h 78% 0 mm 54 W/m2
08:54 -1.6 °C -4.9 °C 1016.5 hPa NW 3.9 km/h 20.9 km/h 78% 0 mm 63 W/m2
08:59 -1.6 °C -4.9 °C 1016.5 hPa NW 5.3 km/h 22.5 km/h 78% 0 mm 69 W/m2
09:04 -1.6 °C -5 °C 1016.5 hPa NW 11.3 km/h 29 km/h 77.2% 0 mm 77 W/m2
09:09 -1.6 °C -5.1 °C 1016.5 hPa NW 6.1 km/h 29 km/h 77% 0 mm 84 W/m2
09:14 -1.5 °C -5.1 °C 1016.8 hPa WNW 8.2 km/h 29 km/h 76.8% 0 mm 90 W/m2
09:19 -1.5 °C -5.2 °C 1016.5 hPa NW 8.2 km/h 29 km/h 76% 0 mm 91 W/m2
09:24 -1.4 °C -5.2 °C 1016.5 hPa NW 4.7 km/h 29 km/h 76% 0 mm 98 W/m2
09:29 -1.4 °C -5.1 °C 1016.8 hPa NW 6.9 km/h 29 km/h 76% 0 mm 105 W/m2
09:34 -1.4 °C -5.2 °C 1016.8 hPa NW 9.7 km/h 29 km/h 75.3% 0 mm 118 W/m2
09:39 -1.4 °C -5.2 °C 1016.8 hPa NW 7.2 km/h 22.5 km/h 75% 0 mm 127 W/m2
09:44 -1.3 °C -5.2 °C 1016.8 hPa NW 4.3 km/h 22.5 km/h 75% 0 mm 130 W/m2
09:49 -1.2 °C -5.1 °C 1016.8 hPa NNW 7.9 km/h 24.1 km/h 75% 0 mm 134 W/m2
09:54 -1.2 °C -5.2 °C 1016.8 hPa NW 6.1 km/h 24.1 km/h 74.1% 0 mm 130 W/m2
09:59 -1.1 °C -5.2 °C 1016.8 hPa NW 3.1 km/h 24.1 km/h 74% 0 mm 144 W/m2
10:04 -1.1 °C -5.1 °C 1016.8 hPa WNW 8.4 km/h 24.1 km/h 74% 0 mm 160 W/m2
10:09 -1 °C -5.2 °C 1016.8 hPa NW 8.7 km/h 19.3 km/h 73.3% 0 mm 165 W/m2
10:14 -0.9 °C -5.1 °C 1016.8 hPa NW 6.6 km/h 19.3 km/h 73.5% 0 mm 176 W/m2
10:19 -0.9 °C -4.9 °C 1016.8 hPa WNW 5.3 km/h 19.3 km/h 73.9% 0 mm 178 W/m2
10:24 -0.8 °C -4.9 °C 1016.8 hPa NW 3.4 km/h 19.3 km/h 73.6% 0 mm 185 W/m2
10:29 -0.7 °C -4.9 °C 1016.5 hPa NW 8.4 km/h 20.9 km/h 73.1% 0 mm 199 W/m2
10:34 -0.6 °C -4.9 °C 1016.5 hPa NW 11.7 km/h 27.4 km/h 72.5% 0 mm 211 W/m2
10:39 -0.6 °C -5.1 °C 1016.5 hPa NW 10.3 km/h 27.4 km/h 72% 0 mm 211 W/m2
10:44 -0.6 °C -5.2 °C 1016.5 hPa NNW 10 km/h 27.4 km/h 71.4% 0 mm 216 W/m2
10:49 -0.7 °C -5.4 °C 1016.5 hPa NW 11.3 km/h 32.2 km/h 70% 0 mm 216 W/m2
10:54 -0.7 °C -5.5 °C 1016.5 hPa NW 14.8 km/h 32.2 km/h 69.7% 0 mm 221 W/m2
10:59 -0.7 °C -5.7 °C 1016.5 hPa NW 9.7 km/h 32.2 km/h 69.1% 0 mm 220 W/m2
11:04 -0.7 °C -5.6 °C 1016.1 hPa NNW 6.1 km/h 32.2 km/h 69.5% 0 mm 220 W/m2
11:09 -0.6 °C -5.5 °C 1016.1 hPa NNW 11.4 km/h 20.9 km/h 69.5% 0 mm 260 W/m2
11:14 -0.6 °C -5.6 °C 1016.1 hPa NW 10.9 km/h 20.9 km/h 69% 0 mm 250 W/m2
11:17 -0.5 °C -5.5 °C 1016.1 hPa NW 11.3 km/h 20.9 km/h 69% 0 mm 251 W/m2
11:30 -0.3 °C -5.4 °C 1015.8 hPa NW 9.7 km/h 24.1 km/h 68% 0 mm 240 W/m2
12:04 0.1 °C -5.3 °C 1015.8 hPa NW 12.9 km/h 24.1 km/h 66.7% 0 mm 240 W/m2
12:09 0.2 °C -5.6 °C 1015.8 hPa NNW 15.6 km/h 32.2 km/h 65.2% 0 mm 209 W/m2
12:14 -0.1 °C -6.1 °C 1015.5 hPa NW 16.3 km/h 32.2 km/h 64% 0 mm 202 W/m2
12:19 -0.2 °C -6.1 °C 1015.5 hPa NW 14.3 km/h 32.2 km/h 64.7% 0 mm 199 W/m2
12:24 -0.3 °C -6.1 °C 1015.5 hPa NW 10.3 km/h 32.2 km/h 64.9% 0 mm 211 W/m2
12:29 -0.2 °C -5.8 °C 1015.1 hPa NNW 9.8 km/h 32.2 km/h 65.7% 0 mm 262 W/m2
12:34 0 °C -5.6 °C 1015.1 hPa NW 8.4 km/h 32.2 km/h 66% 0 mm 253 W/m2
12:39 0.3 °C -5.5 °C 1015.1 hPa NW 11.6 km/h 29 km/h 65.2% 0 mm 167 W/m2
12:44 0.4 °C -5.6 °C 1015.1 hPa NW 12.4 km/h 29 km/h 64% 0 mm 288 W/m2
12:49 0.6 °C -5.5 °C 1015.1 hPa NW 9.5 km/h 29 km/h 64% 0 mm 105 W/m2
12:54 0.7 °C -5.3 °C 1015.1 hPa NW 6.4 km/h 29 km/h 64.2% 0 mm 72 W/m2
12:59 0.8 °C -5.2 °C 1015.1 hPa NNW 10.1 km/h 29 km/h 63.9% 0 mm 144 W/m2
13:04 0.8 °C -5.6 °C 1014.8 hPa NNW 12.6 km/h 25.7 km/h 62.3% 0 mm 125 W/m2
13:09 0.7 °C -5.6 °C 1014.8 hPa NW 11.7 km/h 29 km/h 62.5% 0 mm 125 W/m2
13:14 0.7 °C -5.7 °C 1014.8 hPa NW 10 km/h 29 km/h 62.4% 0 mm 308 W/m2
13:19 0.7 °C -5.7 °C 1014.8 hPa NNW 9.2 km/h 29 km/h 62.3% 0 mm 223 W/m2
13:24 0.7 °C -5.7 °C 1014.8 hPa NW 11.3 km/h 29 km/h 62% 0 mm 239 W/m2
13:29 0.7 °C -5.9 °C 1014.8 hPa NW 15.1 km/h 29 km/h 61% 0 mm 374 W/m2
13:34 0.7 °C -6.1 °C 1014.8 hPa NW 12.1 km/h 35.4 km/h 60.7% 0 mm 329 W/m2
13:39 0.6 °C -6.1 °C 1014.8 hPa NW 14.8 km/h 35.4 km/h 60.9% 0 mm 76 W/m2
13:44 0.6 °C -6.2 °C 1014.8 hPa NNW 10.1 km/h 35.4 km/h 60.8% 0 mm 501 W/m2
13:49 0.6 °C -6.2 °C 1014.8 hPa NNW 11.9 km/h 35.4 km/h 60.6% 0 mm 292 W/m2
13:54 0.6 °C -6.3 °C 1014.8 hPa NNW 12.1 km/h 35.4 km/h 60% 0 mm 153 W/m2
13:59 0.4 °C -6.4 °C 1014.8 hPa NW 8.5 km/h 35.4 km/h 60% 0 mm 153 W/m2
14:04 0.5 °C -6.4 °C 1014.8 hPa NNW 13.4 km/h 35.4 km/h 60% 0 mm 244 W/m2
14:09 0.4 °C -6.6 °C 1014.8 hPa NW 11.9 km/h 25.7 km/h 59.2% 0 mm 244 W/m2
14:14 0.4 °C -6.6 °C 1014.4 hPa NW 14 km/h 25.7 km/h 59.4% 0 mm 167 W/m2
14:19 0.3 °C -6.8 °C 1014.8 hPa NNW 13.7 km/h 32.2 km/h 58.7% 0 mm 155 W/m2
14:24 0.2 °C -7 °C 1014.8 hPa NW 11.6 km/h 32.2 km/h 58.6% 0 mm 171 W/m2
14:29 0.1 °C -7.1 °C 1014.8 hPa NW 12.4 km/h 32.2 km/h 58.5% 0 mm 276 W/m2
14:34 0.1 °C -7.2 °C 1014.8 hPa NNW 14.5 km/h 32.2 km/h 58% 0 mm 276 W/m2
14:39 0 °C -7.3 °C 1014.8 hPa NW 11.1 km/h 29 km/h 58% 0 mm 142 W/m2
14:44 -0.1 °C -7.4 °C 1014.8 hPa NW 15.1 km/h 29 km/h 58% 0 mm 149 W/m2
14:49 -0.2 °C -7.6 °C 1014.8 hPa NW 17.5 km/h 29 km/h 57.4% 0 mm 107 W/m2
14:54 -0.3 °C -7.7 °C 1014.8 hPa NW 14.3 km/h 32.2 km/h 57.6% 0 mm 255 W/m2
14:59 -0.4 °C -7.7 °C 1014.8 hPa NW 10.8 km/h 32.2 km/h 57.9% 0 mm 279 W/m2
15:04 -0.5 °C -7.8 °C 1014.8 hPa WNW 11.3 km/h 32.2 km/h 58% 0 mm 35 W/m2
15:09 -0.6 °C -7.8 °C 1015.1 hPa WNW 15.1 km/h 27.4 km/h 58% 0 mm 33 W/m2
15:14 -0.7 °C -7.9 °C 1015.1 hPa NW 9.7 km/h 30.6 km/h 58% 0 mm 32 W/m2
15:19 -0.7 °C -7.9 °C 1015.1 hPa NW 14.5 km/h 30.6 km/h 58% 0 mm 30 W/m2
15:24 -0.8 °C -8 °C 1015.1 hPa NW 13.7 km/h 30.6 km/h 58% 0 mm 30 W/m2
15:29 -0.8 °C -8.3 °C 1015.1 hPa NW 13.7 km/h 30.6 km/h 56.9% 0 mm 28 W/m2
15:34 -0.9 °C -8.6 °C 1015.5 hPa NNW 16.1 km/h 38.6 km/h 56% 0 mm 26 W/m2
15:39 -1.1 °C -8.7 °C 1015.1 hPa NNW 14 km/h 38.6 km/h 56.2% 0 mm 26 W/m2
15:44 -1.2 °C -8.6 °C 1015.5 hPa NNW 11.9 km/h 38.6 km/h 57.2% 0 mm 25 W/m2
15:49 -1.3 °C -8.8 °C 1015.8 hPa NW 14.6 km/h 38.6 km/h 57% 0 mm 25 W/m2
15:54 -1.5 °C -8.8 °C 1015.5 hPa NW 10 km/h 38.6 km/h 57.1% 0 mm 23 W/m2
15:59 -1.6 °C -8.8 °C 1015.8 hPa NW 10.8 km/h 38.6 km/h 57.4% 0 mm 21 W/m2
16:04 -1.7 °C -9.1 °C 1015.5 hPa NW 14.5 km/h 14.5 km/h 57% 0 mm 19 W/m2
16:09 -1.7 °C -9.1 °C 1015.8 hPa NW 9 km/h 19.3 km/h 57.4% 0 mm 19 W/m2
16:14 -1.8 °C -9 °C 1015.8 hPa NW 10.8 km/h 24.1 km/h 58% 0 mm 19 W/m2
16:19 -1.9 °C -8.9 °C 1015.8 hPa NW 12.2 km/h 29 km/h 58.5% 0 mm 18 W/m2
16:24 -2.1 °C -9.3 °C 1015.8 hPa NW 14.2 km/h 29 km/h 57.5% 0 mm 16 W/m2
16:29 -2.3 °C -9.7 °C 1015.8 hPa NW 13.2 km/h 32.2 km/h 57% 0 mm 16 W/m2
16:34 -2.4 °C -9.6 °C 1016.1 hPa NW 8.2 km/h 32.2 km/h 57.9% 0 mm 14 W/m2
16:39 -2.6 °C -9.6 °C 1016.1 hPa NW 13.5 km/h 30.6 km/h 58.6% 0 mm 12 W/m2
16:44 -2.7 °C -9.7 °C 1016.1 hPa NW 13.7 km/h 30.6 km/h 58.8% 0 mm 11 W/m2
16:49 -2.8 °C -9.7 °C 1016.5 hPa NW 9 km/h 30.6 km/h 59.4% 0 mm 9 W/m2
16:54 -2.9 °C -9.8 °C 1016.5 hPa NW 10.9 km/h 30.6 km/h 59.1% 0 mm 7 W/m2
16:59 -3.1 °C -10 °C 1016.5 hPa NW 15 km/h 33.8 km/h 59% 0 mm 5 W/m2
17:04 -3.2 °C -10.1 °C 1016.8 hPa NW 11.1 km/h 33.8 km/h 59% 0 mm 0 W/m2
17:09 -3.4 °C -10.2 °C 1016.8 hPa NW 7.1 km/h 29 km/h 59% 0 mm 0 W/m2
17:14 -3.5 °C -10.3 °C 1016.8 hPa NW 7.4 km/h 29 km/h 59.1% 0 mm 0 W/m2
17:19 -3.7 °C -10.3 °C 1016.8 hPa NW 7.9 km/h 29 km/h 60% 0 mm 0 W/m2
17:24 -3.8 °C -10.6 °C 1017.2 hPa NW 9.8 km/h 29 km/h 59.2% 0 mm 0 W/m2
17:29 -4 °C -10.9 °C 1017.2 hPa NW 14 km/h 29 km/h 58.5% 0 mm 0 W/m2
17:34 -4.2 °C -11.1 °C 1017.2 hPa WNW 10.1 km/h 29 km/h 58.8% 0 mm 0 W/m2
17:39 -4.3 °C -11.2 °C 1017.2 hPa NW 6.8 km/h 24.1 km/h 59% 0 mm 0 W/m2
17:44 -4.5 °C -11.2 °C 1017.5 hPa NW 9.2 km/h 24.1 km/h 59.4% 0 mm 0 W/m2
17:49 -4.6 °C -11.3 °C 1017.5 hPa NW 17.4 km/h 32.2 km/h 59.3% 0 mm 0 W/m2
17:54 -4.8 °C -11.6 °C 1017.5 hPa NW 16.1 km/h 32.2 km/h 59% 0 mm 0 W/m2
17:59 -4.9 °C -11.7 °C 1017.5 hPa NW 15.3 km/h 37 km/h 59% 0 mm 0 W/m2
18:04 -5.1 °C -11.8 °C 1017.8 hPa NW 17.4 km/h 37 km/h 59% 0 mm 0 W/m2
18:09 -5.2 °C -11.8 °C 1017.8 hPa NW 9.7 km/h 27.4 km/h 59.3% 0 mm 0 W/m2
18:14 -5.3 °C -11.8 °C 1017.8 hPa NW 11.6 km/h 27.4 km/h 60% 0 mm 0 W/m2
18:19 -5.3 °C -11.9 °C 1017.8 hPa NW 9 km/h 27.4 km/h 60% 0 mm 0 W/m2
18:24 -5.4 °C -11.8 °C 1017.8 hPa NW 6.6 km/h 27.4 km/h 60.5% 0 mm 0 W/m2
18:29 -5.5 °C -11.8 °C 1017.8 hPa NW 9.2 km/h 27.4 km/h 61% 0 mm 0 W/m2
18:34 -5.6 °C -11.9 °C 1017.8 hPa NW 13.2 km/h 27.4 km/h 61% 0 mm 0 W/m2
18:39 -5.6 °C -11.9 °C 1018.2 hPa WNW 10.8 km/h 22.5 km/h 61% 0 mm 0 W/m2
18:44 -5.7 °C -12 °C 1018.2 hPa NW 13.7 km/h 40.2 km/h 61% 0 mm 0 W/m2
18:49 -5.8 °C -12.3 °C 1018.5 hPa NW 18.2 km/h 40.2 km/h 60% 0 mm 0 W/m2
18:54 -5.8 °C -12.3 °C 1018.5 hPa NW 15.8 km/h 40.2 km/h 60% 0 mm 0 W/m2
18:59 -5.9 °C -12.4 °C 1018.5 hPa NW 16.3 km/h 40.2 km/h 60% 0 mm 0 W/m2
19:04 -6 °C -12.5 °C 1018.5 hPa NW 14.5 km/h 40.2 km/h 60% 0 mm 0 W/m2
19:09 -6.1 °C -12.6 °C 1018.5 hPa NW 12.9 km/h 29 km/h 60% 0 mm 0 W/m2
19:14 -6.2 °C -12.7 °C 1018.8 hPa NW 13.4 km/h 29 km/h 60% 0 mm 0 W/m2
19:19 -6.3 °C -12.8 °C 1018.8 hPa NW 10 km/h 29 km/h 60% 0 mm 0 W/m2
19:24 -6.3 °C -12.7 °C 1018.8 hPa NW 9.5 km/h 29 km/h 60.6% 0 mm 0 W/m2
19:29 -6.4 °C -12.7 °C 1018.8 hPa NNW 9.7 km/h 29 km/h 61% 0 mm 0 W/m2
19:34 -6.5 °C -12.8 °C 1018.5 hPa NW 13.8 km/h 32.2 km/h 61% 0 mm 0 W/m2
19:39 -6.5 °C -12.8 °C 1018.5 hPa NW 7.9 km/h 32.2 km/h 61% 0 mm 0 W/m2
19:44 -6.6 °C -12.8 °C 1018.5 hPa NW 11.1 km/h 32.2 km/h 61% 0 mm 0 W/m2
19:49 -6.7 °C -12.9 °C 1018.5 hPa NW 10.3 km/h 32.2 km/h 61% 0 mm 0 W/m2
19:54 -6.7 °C -12.9 °C 1018.5 hPa NW 15.4 km/h 32.2 km/h 61% 0 mm 0 W/m2
19:59 -6.7 °C -13.1 °C 1018.5 hPa NW 13.2 km/h 32.2 km/h 60.2% 0 mm 0 W/m2
20:04 -6.7 °C -13.1 °C 1018.5 hPa NW 9.7 km/h 9.7 km/h 60% 0 mm 0 W/m2
20:09 -6.7 °C -13 °C 1018.5 hPa NNW 7.7 km/h 20.9 km/h 60.7% 0 mm 0 W/m2
20:14 -6.7 °C -13 °C 1018.5 hPa NW 7.9 km/h 20.9 km/h 61% 0 mm 0 W/m2
20:19 -6.8 °C -13.1 °C 1018.5 hPa NW 9.3 km/h 25.7 km/h 60.8% 0 mm 0 W/m2
20:24 -6.8 °C -13.1 °C 1018.5 hPa NW 8.9 km/h 25.7 km/h 60.7% 0 mm 0 W/m2
20:29 -6.8 °C -13.1 °C 1018.5 hPa NW 12.7 km/h 32.2 km/h 61% 0 mm 0 W/m2
20:34 -6.8 °C -13.1 °C 1018.5 hPa NW 8 km/h 32.2 km/h 61% 0 mm 0 W/m2
20:39 -6.9 °C -13.1 °C 1018.5 hPa NW 10.6 km/h 22.5 km/h 61% 0 mm 0 W/m2
20:44 -6.9 °C -13.1 °C 1018.5 hPa NW 10.6 km/h 29 km/h 61.5% 0 mm 0 W/m2
20:49 -6.9 °C -12.9 °C 1018.5 hPa NW 16.4 km/h 35.4 km/h 62% 0 mm 0 W/m2
20:54 -6.9 °C -13 °C 1018.2 hPa NW 12.4 km/h 35.4 km/h 62% 0 mm 0 W/m2
20:59 -6.9 °C -13 °C 1018.2 hPa NW 7.6 km/h 35.4 km/h 62% 0 mm 0 W/m2
21:04 -6.9 °C -12.9 °C 1018.2 hPa NW 9.8 km/h 35.4 km/h 62.3% 0 mm 0 W/m2
21:09 -7 °C -12.8 °C 1018.2 hPa NW 11.3 km/h 25.7 km/h 63% 0 mm 0 W/m2
21:14 -7 °C -12.8 °C 1017.8 hPa NW 6.9 km/h 25.7 km/h 63% 0 mm 0 W/m2
21:19 -7 °C -12.9 °C 1017.8 hPa NW 7.9 km/h 25.7 km/h 63% 0 mm 0 W/m2
21:24 -7.1 °C -12.9 °C 1018.2 hPa NW 7.1 km/h 25.7 km/h 63% 0 mm 0 W/m2
21:29 -7.1 °C -12.9 °C 1017.8 hPa NW 2.4 km/h 25.7 km/h 63.1% 0 mm 0 W/m2
21:34 -7.2 °C -12.8 °C 1018.2 hPa NW 8.4 km/h 27.4 km/h 64% 0 mm 0 W/m2
21:39 -7.2 °C -12.8 °C 1017.8 hPa NW 11.9 km/h 27.4 km/h 64% 0 mm 0 W/m2
21:44 -7.2 °C -12.8 °C 1017.8 hPa NNW 10.6 km/h 27.4 km/h 64% 0 mm 0 W/m2
21:49 -7.2 °C -12.9 °C 1017.8 hPa NNW 8.4 km/h 27.4 km/h 64% 0 mm 0 W/m2
21:54 -7.2 °C -12.9 °C 1017.8 hPa NNW 8.9 km/h 27.4 km/h 64% 0 mm 0 W/m2
21:59 -7.2 °C -13 °C 1017.8 hPa NNW 6.6 km/h 27.4 km/h 63.4% 0 mm 0 W/m2
22:04 -7.3 °C -13.1 °C 1017.8 hPa NW 17.1 km/h 33.8 km/h 63% 0 mm 0 W/m2
22:09 -7.3 °C -13.2 °C 1017.8 hPa NW 15.6 km/h 33.8 km/h 62.5% 0 mm 0 W/m2
22:14 -7.3 °C -13.3 °C 1017.8 hPa NNW 10.3 km/h 33.8 km/h 62% 0 mm 0 W/m2
22:19 -7.3 °C -13.3 °C 1017.8 hPa NW 15.9 km/h 35.4 km/h 62% 0 mm 0 W/m2
22:24 -7.3 °C -13.4 °C 1017.8 hPa NW 16.9 km/h 35.4 km/h 61.8% 0 mm 0 W/m2
22:29 -7.3 °C -13.4 °C 1017.8 hPa NNW 13.4 km/h 35.4 km/h 61.8% 0 mm 0 W/m2
22:34 -7.4 °C -13.6 °C 1017.8 hPa NNW 17.5 km/h 35.4 km/h 61% 0 mm 0 W/m2
22:39 -7.4 °C -13.7 °C 1017.8 hPa NW 15.3 km/h 41.8 km/h 61% 0 mm 0 W/m2
22:44 -7.5 °C -13.7 °C 1018.2 hPa NW 17.7 km/h 41.8 km/h 60.9% 0 mm 0 W/m2
22:49 -7.6 °C -14 °C 1018.2 hPa NW 17.4 km/h 41.8 km/h 60% 0 mm 0 W/m2
22:54 -7.7 °C -14.2 °C 1018.2 hPa NW 14 km/h 41.8 km/h 59.6% 0 mm 0 W/m2
22:59 -7.7 °C -14.3 °C 1017.8 hPa NW 17.9 km/h 41.8 km/h 59% 0 mm 0 W/m2
23:04 -7.8 °C -14.4 °C 1017.8 hPa NW 22.5 km/h 22.5 km/h 59% 0 mm 0 W/m2
23:09 -7.9 °C -14.4 °C 1017.8 hPa NNW 15.9 km/h 25.7 km/h 59.2% 0 mm 0 W/m2
23:14 -7.9 °C -14.6 °C 1017.8 hPa NW 18 km/h 35.4 km/h 59% 0 mm 0 W/m2
23:19 -8 °C -14.6 °C 1017.8 hPa NW 13.4 km/h 35.4 km/h 59% 0 mm 0 W/m2
23:24 -8.1 °C -14.7 °C 1017.8 hPa NW 11.7 km/h 35.4 km/h 59.1% 0 mm 0 W/m2
23:29 -8.2 °C -14.6 °C 1017.8 hPa NNW 11.9 km/h 35.4 km/h 60% 0 mm 0 W/m2
23:34 -8.2 °C -14.6 °C 1017.8 hPa NW 14.2 km/h 35.4 km/h 60% 0 mm 0 W/m2
23:39 -8.3 °C -14.6 °C 1017.8 hPa NW 12.9 km/h 33.8 km/h 60% 0 mm 0 W/m2
23:44 -8.3 °C -14.7 °C 1017.8 hPa NW 15.9 km/h 38.6 km/h 60% 0 mm 0 W/m2
23:49 -8.3 °C -14.7 °C 1017.8 hPa NNW 12.1 km/h 38.6 km/h 60% 0 mm 0 W/m2
23:54 -8.4 °C -14.8 °C 1017.8 hPa NW 14 km/h 38.6 km/h 60% 0 mm 0 W/m2
23:59 -8.4 °C -14.8 °C 1017.5 hPa NW 12.6 km/h 38.6 km/h 60% 0 mm 0 W/m2
Hartford County Weather
Compliments of Weather Underground - 4 mb